createdAt,value
2023-01-23T00:00:29.337Z,0
2023-01-23T00:01:09.840Z,0
2023-01-23T00:01:50.338Z,0
2023-01-23T00:02:31.672Z,0
2023-01-23T00:05:00.517Z,0
2023-01-23T00:05:41.103Z,0
2023-01-23T00:06:22.614Z,0
2023-01-23T00:07:03.232Z,0
2023-01-23T00:09:15.962Z,0
2023-01-23T00:09:56.515Z,0
2023-01-23T00:10:37.899Z,0
2023-01-23T00:11:18.345Z,0
2023-01-23T00:11:58.880Z,0
2023-01-23T00:14:11.950Z,0
2023-01-23T00:14:52.472Z,0
2023-01-23T00:15:33.069Z,0
2023-01-23T00:16:13.537Z,0
2023-01-23T00:16:54.068Z,0
2023-01-23T00:17:35.337Z,0
2023-01-23T00:18:15.869Z,0
2023-01-23T00:18:56.380Z,0
2023-01-23T00:19:36.914Z,0
2023-01-23T00:25:41.699Z,0
2023-01-23T00:26:22.139Z,0
2023-01-23T00:27:02.635Z,0
2023-01-23T00:27:43.166Z,0
2023-01-23T00:28:23.679Z,0
2023-01-23T00:29:04.218Z,0
2023-01-23T00:29:44.736Z,0
2023-01-23T00:30:25.275Z,0
2023-01-23T00:31:06.019Z,0
2023-01-23T00:31:46.439Z,0
2023-01-23T00:32:26.840Z,0
2023-01-23T00:37:11.712Z,0
2023-01-23T00:37:52.251Z,0
2023-01-23T00:38:32.751Z,0
2023-01-23T00:39:13.261Z,0
2023-01-23T00:39:53.779Z,0
2023-01-23T00:40:34.296Z,0
2023-01-23T00:41:14.916Z,0
2023-01-23T00:41:55.332Z,0
2023-01-23T00:42:35.868Z,0
2023-01-23T00:43:16.365Z,0
2023-01-23T00:43:56.889Z,0
2023-01-23T00:50:01.859Z,0
2023-01-23T00:50:42.375Z,0
2023-01-23T00:51:22.935Z,0
2023-01-23T00:52:03.406Z,0
2023-01-23T00:52:43.954Z,0
2023-01-23T00:53:24.508Z,0
2023-01-23T00:54:05.591Z,0
2023-01-23T00:54:46.163Z,0
2023-01-23T00:55:26.688Z,0
2023-01-23T01:02:11.975Z,0
2023-01-23T01:02:52.558Z,0
2023-01-23T01:03:33.601Z,0
2023-01-23T01:04:14.137Z,0
2023-01-23T01:04:54.671Z,0
2023-01-23T01:05:35.191Z,0
2023-01-23T01:06:15.688Z,0
2023-01-23T01:06:56.225Z,0
2023-01-23T01:07:36.778Z,0
2023-01-23T01:13:41.767Z,0
2023-01-23T01:14:22.319Z,0
2023-01-23T01:16:35.424Z,0
2023-01-23T01:17:15.923Z,0
2023-01-23T01:17:57.239Z,0
2023-01-23T01:18:37.746Z,0
2023-01-23T01:20:50.844Z,0
2023-01-23T01:21:31.373Z,0
2023-01-23T01:22:11.884Z,0
2023-01-23T01:22:54.148Z,0
2023-01-23T01:25:23.875Z,0
2023-01-23T01:26:04.377Z,0
2023-01-23T01:26:44.910Z,0
2023-01-23T01:27:25.564Z,0
2023-01-23T01:28:05.997Z,0
2023-01-23T01:28:46.559Z,0
2023-01-23T01:31:00.524Z,0
2023-01-23T01:31:41.023Z,0
2023-01-23T01:32:21.530Z,0
2023-01-23T01:33:02.056Z,0
2023-01-23T01:33:42.562Z,0
2023-01-23T01:34:23.724Z,0
2023-01-23T01:35:03.649Z,0
2023-01-23T01:35:44.154Z,0
2023-01-23T01:36:24.685Z,0
2023-01-23T01:37:05.199Z,0
2023-01-23T01:43:50.515Z,0
2023-01-23T01:44:31.775Z,0
2023-01-23T01:45:12.285Z,0
2023-01-23T01:45:52.804Z,0
2023-01-23T01:46:33.343Z,0
2023-01-23T01:47:13.826Z,0
2023-01-23T01:47:54.352Z,0
2023-01-23T01:48:34.866Z,0
2023-01-23T01:49:15.382Z,0
2023-01-23T01:55:20.133Z,0
2023-01-23T01:56:00.679Z,0
2023-01-23T01:56:41.219Z,0
2023-01-23T01:57:21.725Z,0
2023-01-23T01:58:02.377Z,0
2023-01-23T01:58:42.771Z,0
2023-01-23T01:59:23.375Z,0
2023-01-23T02:01:37.285Z,0
2023-01-23T02:02:17.807Z,0
2023-01-23T02:02:58.299Z,0
2023-01-23T02:03:38.875Z,0
2023-01-23T02:04:19.435Z,0
2023-01-23T02:06:32.435Z,0
2023-01-23T02:07:12.963Z,0
2023-01-23T02:07:53.477Z,0
2023-01-23T02:08:33.989Z,0
2023-01-23T02:10:50.096Z,0
2023-01-23T02:11:30.618Z,0
2023-01-23T02:12:11.143Z,0
2023-01-23T02:12:51.663Z,0
2023-01-23T02:13:32.382Z,0
2023-01-23T02:14:12.701Z,0
2023-01-23T02:14:53.181Z,0
2023-01-23T02:17:06.212Z,0
2023-01-23T02:17:46.751Z,0
2023-01-23T02:18:27.823Z,0
2023-01-23T02:19:08.341Z,0
2023-01-23T02:21:43.666Z,0
2023-01-23T02:22:24.170Z,0
2023-01-23T02:23:04.709Z,0
2023-01-23T02:23:45.220Z,0
2023-01-23T02:24:25.720Z,0
2023-01-23T02:25:06.257Z,0
2023-01-23T02:25:46.774Z,0
2023-01-23T02:26:27.270Z,0
2023-01-23T02:27:07.815Z,0
2023-01-23T02:27:48.436Z,0
2023-01-23T02:33:53.725Z,0
2023-01-23T02:34:34.271Z,0
2023-01-23T02:35:14.781Z,0
2023-01-23T02:35:55.293Z,0
2023-01-23T02:36:35.837Z,0
2023-01-23T02:37:16.385Z,0
2023-01-23T02:37:56.926Z,0
2023-01-23T02:38:37.469Z,0
2023-01-23T02:39:17.992Z,0
2023-01-23T02:39:58.529Z,0
2023-01-23T02:46:03.461Z,0
2023-01-23T02:46:43.971Z,0
2023-01-23T02:47:24.488Z,0
2023-01-23T02:48:04.995Z,0
2023-01-23T02:48:45.524Z,0
2023-01-23T02:49:26.666Z,0
2023-01-23T02:50:07.173Z,0
2023-01-23T02:50:47.869Z,0
2023-01-23T02:51:28.352Z,0
2023-01-23T02:56:49.187Z,0
2023-01-23T02:57:29.726Z,0
2023-01-23T02:58:10.250Z,0
2023-01-23T02:58:50.747Z,0
2023-01-23T02:59:31.289Z,0
2023-01-23T03:00:11.957Z,0
2023-01-23T03:00:52.358Z,0
2023-01-23T03:01:32.840Z,0
2023-01-23T03:02:13.460Z,0
2023-01-23T03:02:53.911Z,0
2023-01-23T03:09:39.235Z,0
2023-01-23T03:10:20.932Z,0
2023-01-23T03:11:01.263Z,0
2023-01-23T03:11:41.806Z,0
2023-01-23T03:12:22.322Z,0
2023-01-23T03:13:02.840Z,0
2023-01-23T03:13:43.356Z,0
2023-01-23T03:14:23.870Z,0
2023-01-23T03:21:09.191Z,0
2023-01-23T03:21:49.720Z,0
2023-01-23T03:22:30.221Z,0
2023-01-23T03:23:10.761Z,0
2023-01-23T03:23:51.294Z,0
2023-01-23T03:24:31.838Z,0
2023-01-23T03:25:12.376Z,0
2023-01-23T03:25:53.638Z,0
2023-01-23T03:26:34.145Z,0
2023-01-23T03:31:18.930Z,0
2023-01-23T03:31:59.312Z,0
2023-01-23T03:32:39.818Z,0
2023-01-23T03:33:20.350Z,0
2023-01-23T03:34:00.887Z,0
2023-01-23T03:34:41.379Z,0
2023-01-23T03:35:21.899Z,0
2023-01-23T03:36:03.027Z,0
2023-01-23T03:36:43.615Z,0
2023-01-23T03:37:25.062Z,0
2023-01-23T03:42:49.173Z,0
2023-01-23T03:43:29.686Z,0
2023-01-23T03:44:10.190Z,0
2023-01-23T03:44:50.701Z,0
2023-01-23T03:45:31.230Z,0
2023-01-23T03:46:11.739Z,0
2023-01-23T03:48:25.652Z,0
2023-01-23T03:49:06.948Z,0
2023-01-23T03:49:47.509Z,0
2023-01-23T03:50:28.052Z,0
2023-01-23T03:52:42.279Z,0
2023-01-23T03:53:22.806Z,0
2023-01-23T03:54:03.294Z,0
2023-01-23T03:54:44.477Z,0
2023-01-23T03:55:25.007Z,0
2023-01-23T03:56:05.534Z,0
2023-01-23T03:56:46.111Z,0
2023-01-23T03:57:26.626Z,0
2023-01-23T03:58:07.160Z,0
2023-01-23T04:03:32.008Z,0
2023-01-23T04:04:12.420Z,0
2023-01-23T04:04:52.930Z,0
2023-01-23T04:05:34.350Z,0
2023-01-23T04:06:15.681Z,0
2023-01-23T04:06:56.189Z,0
2023-01-23T04:07:36.695Z,0
2023-01-23T04:09:49.697Z,0
2023-01-23T04:10:30.216Z,0
2023-01-23T04:11:10.748Z,0
2023-01-23T04:11:51.230Z,0
2023-01-23T04:12:31.782Z,0
2023-01-23T04:13:12.306Z,0
2023-01-23T04:13:52.848Z,0
2023-01-23T04:14:33.351Z,0
2023-01-23T04:15:13.870Z,0
2023-01-23T04:15:54.408Z,0
2023-01-23T04:19:53.985Z,0
2023-01-23T04:20:34.387Z,0
2023-01-23T04:21:14.906Z,0
2023-01-23T04:21:55.411Z,0
2023-01-23T04:22:35.953Z,0
2023-01-23T04:23:16.477Z,0
2023-01-23T04:23:57.015Z,0
2023-01-23T04:24:37.513Z,0
2023-01-23T04:25:18.034Z,0
2023-01-23T04:25:58.551Z,0
2023-01-23T04:32:03.967Z,0
2023-01-23T04:32:45.427Z,0
2023-01-23T04:33:25.955Z,0
2023-01-23T04:34:06.438Z,0
2023-01-23T04:34:46.955Z,0
2023-01-23T04:35:29.194Z,0
2023-01-23T04:41:33.798Z,0
2023-01-23T04:42:14.331Z,0
2023-01-23T04:42:54.865Z,0
2023-01-23T04:43:35.380Z,0
2023-01-23T04:45:48.550Z,0
2023-01-23T04:46:30.029Z,0
2023-01-23T04:47:10.557Z,0
2023-01-23T04:47:51.055Z,0
2023-01-23T04:50:07.069Z,0
2023-01-23T04:50:47.708Z,0
2023-01-23T04:51:28.136Z,0
2023-01-23T04:52:09.112Z,0
2023-01-23T04:52:49.670Z,0
2023-01-23T04:53:30.175Z,0
2023-01-23T04:54:10.692Z,0
2023-01-23T04:54:51.227Z,0
2023-01-23T04:55:31.779Z,0
2023-01-23T04:59:31.320Z,0
2023-01-23T05:00:11.948Z,0
2023-01-23T05:00:52.489Z,0
2023-01-23T05:01:33.608Z,0
2023-01-23T05:02:14.103Z,0
2023-01-23T05:02:54.544Z,0
2023-01-23T05:03:35.887Z,0
2023-01-23T05:10:17.897Z,0
2023-01-23T05:10:58.288Z,0
2023-01-23T05:11:38.755Z,0
2023-01-23T05:12:19.263Z,0
2023-01-23T05:12:59.773Z,0
2023-01-23T05:13:40.302Z,0
2023-01-23T05:14:20.837Z,0
2023-01-23T05:15:01.346Z,0
2023-01-23T05:15:41.901Z,0
2023-01-23T05:19:42.750Z,0
2023-01-23T05:20:23.258Z,0
2023-01-23T05:21:03.804Z,0
2023-01-23T05:21:44.467Z,0
2023-01-23T05:22:24.898Z,0
2023-01-23T05:23:05.417Z,0
2023-01-23T05:23:45.915Z,0
2023-01-23T05:24:26.450Z,0
2023-01-23T05:25:06.974Z,0
2023-01-23T05:25:47.571Z,0
2023-01-23T05:29:12.633Z,0
2023-01-23T05:29:53.211Z,0
2023-01-23T05:32:07.955Z,0
2023-01-23T05:32:49.980Z,0
2023-01-23T05:33:36.959Z,0
2023-01-23T05:34:17.474Z,0
2023-01-23T05:36:38.663Z,0
2023-01-23T05:37:20.268Z,0
2023-01-23T05:38:00.667Z,0
2023-01-23T05:38:41.195Z,0
2023-01-23T05:39:21.725Z,0
2023-01-23T05:40:02.215Z,0
2023-01-23T05:40:42.744Z,0
2023-01-23T05:41:25.542Z,0
2023-01-23T05:48:08.563Z,0
2023-01-23T05:48:49.072Z,0
2023-01-23T05:49:29.582Z,0
2023-01-23T05:50:10.116Z,0
2023-01-23T05:50:50.648Z,0
2023-01-23T05:51:31.140Z,0
2023-01-23T05:53:44.408Z,0
2023-01-23T05:54:24.764Z,0
2023-01-23T05:55:05.284Z,0
2023-01-23T05:55:45.806Z,0
2023-01-23T05:58:03.949Z,0
2023-01-23T05:58:44.454Z,0
2023-01-23T05:59:24.983Z,0
2023-01-23T06:00:05.498Z,0
2023-01-23T06:00:46.014Z,0
2023-01-23T06:02:45.009Z,0
2023-01-23T06:03:26.550Z,0
2023-01-23T06:04:07.857Z,0
2023-01-23T06:04:48.406Z,0
2023-01-23T06:07:23.273Z,0
2023-01-23T06:08:03.773Z,0
2023-01-23T06:08:44.267Z,0
2023-01-23T06:09:24.928Z,0
2023-01-23T06:10:05.323Z,0
2023-01-23T06:10:45.835Z,0
2023-01-23T06:11:26.351Z,0
2023-01-23T06:12:06.864Z,0
2023-01-23T06:12:47.381Z,0
2023-01-23T06:13:27.951Z,0
2023-01-23T06:18:53.450Z,0
2023-01-23T06:21:06.520Z,0
2023-01-23T06:21:47.018Z,0
2023-01-23T06:22:27.662Z,0
2023-01-23T06:23:08.055Z,0
2023-01-23T06:23:48.585Z,0
2023-01-23T06:24:29.246Z,0
2023-01-23T06:25:09.639Z,0
2023-01-23T06:25:50.772Z,0
2023-01-23T06:26:31.272Z,0
2023-01-23T06:31:51.755Z,0
2023-01-23T06:32:32.254Z,0
2023-01-23T06:33:12.750Z,0
2023-01-23T06:33:53.268Z,0
2023-01-23T06:34:34.734Z,0
2023-01-23T06:35:15.267Z,0
2023-01-23T06:35:55.769Z,0
2023-01-23T06:36:36.291Z,0
2023-01-23T06:43:21.560Z,4
2023-01-23T06:44:02.071Z,8
2023-01-23T06:44:42.589Z,8
2023-01-23T06:45:23.155Z,4
2023-01-23T06:46:03.756Z,8
2023-01-23T06:46:44.311Z,8
2023-01-23T06:47:24.789Z,4
2023-01-23T06:48:05.367Z,8
2023-01-23T06:48:45.826Z,8
2023-01-23T06:49:26.340Z,8
2023-01-23T06:56:11.633Z,24
2023-01-23T06:56:52.167Z,24
2023-01-23T06:57:33.463Z,24
2023-01-23T06:58:13.982Z,32
2023-01-23T06:58:54.510Z,32
2023-01-23T06:59:35.045Z,36
2023-01-23T07:00:16.138Z,36
2023-01-23T07:00:56.657Z,40
2023-01-23T07:07:01.359Z,68
2023-01-23T07:07:42.531Z,68
2023-01-23T07:08:23.062Z,76
2023-01-23T07:09:03.600Z,80
2023-01-23T07:09:44.076Z,84
2023-01-23T07:10:24.617Z,92
2023-01-23T07:11:05.253Z,96
2023-01-23T07:11:45.629Z,100
2023-01-23T07:12:26.155Z,108
2023-01-23T07:13:06.704Z,112
2023-01-23T07:17:51.726Z,160
2023-01-23T07:18:32.260Z,172
2023-01-23T07:19:12.848Z,176
2023-01-23T07:19:53.363Z,184
2023-01-23T07:20:33.886Z,188
2023-01-23T07:21:14.385Z,204
2023-01-23T07:21:54.930Z,212
2023-01-23T07:22:35.477Z,224
2023-01-23T07:23:15.997Z,236
2023-01-23T07:23:56.514Z,252
2023-01-23T07:30:41.914Z,444
2023-01-23T07:31:22.572Z,464
2023-01-23T07:32:03.876Z,480
2023-01-23T07:32:45.365Z,496
2023-01-23T07:33:25.879Z,516
2023-01-23T07:34:06.425Z,528
2023-01-23T07:40:50.023Z,692
2023-01-23T07:41:31.499Z,700
2023-01-23T07:42:12.133Z,720
2023-01-23T07:42:52.514Z,736
2023-01-23T07:43:33.074Z,756
2023-01-23T07:44:13.567Z,796
2023-01-23T07:44:54.099Z,840
2023-01-23T07:50:37.418Z,1200
2023-01-23T07:51:18.039Z,1212
2023-01-23T07:51:58.465Z,1212
2023-01-23T07:52:38.972Z,1260
2023-01-23T07:53:19.509Z,1288
2023-01-23T07:54:00.016Z,1288
2023-01-23T07:54:40.550Z,1300
2023-01-23T07:56:53.680Z,1500
2023-01-23T07:57:34.247Z,1552
2023-01-23T07:58:15.257Z,1608
2023-01-23T07:58:57.518Z,1676
2023-01-23T07:59:37.108Z,1696
2023-01-23T08:00:17.726Z,1716
2023-01-23T08:00:58.238Z,1712
2023-01-23T08:01:38.654Z,1728
2023-01-23T08:05:03.404Z,1812
2023-01-23T08:05:44.083Z,1864
2023-01-23T08:06:24.469Z,1852
2023-01-23T08:07:04.972Z,1860
2023-01-23T08:07:45.471Z,1904
2023-01-23T08:08:25.991Z,1920
2023-01-23T08:09:06.563Z,1904
2023-01-23T08:09:47.742Z,1908
2023-01-23T08:10:28.269Z,1872
2023-01-23T08:17:13.669Z,2112
2023-01-23T08:17:54.192Z,2156
2023-01-23T08:18:34.731Z,2216
2023-01-23T08:19:15.244Z,2244
2023-01-23T08:19:55.796Z,2228
2023-01-23T08:20:36.329Z,2236
2023-01-23T08:22:50.029Z,2468
2023-01-23T08:23:30.579Z,2556
2023-01-23T08:24:11.126Z,2640
2023-01-23T08:24:51.692Z,2748
2023-01-23T08:25:32.233Z,2880
2023-01-23T08:26:12.764Z,2956
2023-01-23T08:26:53.272Z,2964
2023-01-23T08:27:33.821Z,2932
2023-01-23T08:28:14.494Z,2904
2023-01-23T08:31:33.454Z,2948
2023-01-23T08:32:13.992Z,2904
2023-01-23T08:32:54.546Z,2856
2023-01-23T08:33:35.093Z,2828
2023-01-23T08:34:15.603Z,2844
2023-01-23T08:34:57.078Z,2928
2023-01-23T08:35:37.613Z,3116
2023-01-23T08:36:18.167Z,3292
2023-01-23T08:41:43.104Z,3592
2023-01-23T08:42:23.679Z,3524
2023-01-23T08:43:04.980Z,3444
2023-01-23T08:43:45.648Z,3320
2023-01-23T08:44:26.111Z,3192
2023-01-23T08:45:06.668Z,3104
2023-01-23T08:45:47.289Z,3076
2023-01-23T08:46:27.766Z,3068
2023-01-23T08:47:08.361Z,3068
2023-01-23T08:51:54.190Z,2680
2023-01-23T08:52:35.548Z,2720
2023-01-23T08:55:09.151Z,2828
2023-01-23T08:55:50.681Z,2852
2023-01-23T08:56:31.210Z,2912
2023-01-23T08:57:11.776Z,2988
2023-01-23T08:57:52.333Z,3080
2023-01-23T08:58:32.883Z,3120
2023-01-23T08:59:14.455Z,3056
2023-01-23T09:03:59.156Z,3016
2023-01-23T09:04:39.684Z,3032
2023-01-23T09:05:20.212Z,3068
2023-01-23T09:06:00.767Z,3164
2023-01-23T09:06:41.323Z,3440
2023-01-23T09:07:21.864Z,3576
2023-01-23T09:09:35.810Z,3452
2023-01-23T09:10:16.358Z,3512
2023-01-23T09:10:56.908Z,3656
2023-01-23T09:11:39.216Z,3740
2023-01-23T09:14:13.299Z,4708
2023-01-23T09:14:55.593Z,5008
2023-01-23T09:15:35.997Z,5208
2023-01-23T09:16:16.599Z,5320
2023-01-23T09:16:57.049Z,5372
2023-01-23T09:17:37.564Z,4776
2023-01-23T09:18:18.095Z,4932
2023-01-23T09:25:03.314Z,3428
2023-01-23T09:27:31.679Z,2896
2023-01-23T09:28:12.213Z,2972
2023-01-23T09:28:52.777Z,2772
2023-01-23T09:29:33.369Z,2776
2023-01-23T09:31:51.674Z,2444
2023-01-23T09:32:32.056Z,2312
2023-01-23T09:33:12.587Z,2244
2023-01-23T09:33:53.138Z,2052
2023-01-23T09:34:34.195Z,2036
2023-01-23T09:35:14.718Z,2044
2023-01-23T09:35:55.220Z,2116
2023-01-23T09:36:42.729Z,2036
2023-01-23T09:37:16.289Z,2156
2023-01-23T09:44:39.070Z,2056
2023-01-23T09:45:19.587Z,1948
2023-01-23T09:46:00.179Z,1828
2023-01-23T09:46:40.628Z,1776
2023-01-23T09:47:21.273Z,1748
2023-01-23T09:48:01.654Z,1724
2023-01-23T09:48:42.169Z,1756
2023-01-23T09:49:22.690Z,1992
2023-01-23T09:50:03.220Z,2244
2023-01-23T09:50:44.572Z,2528
2023-01-23T09:55:29.084Z,3216
2023-01-23T09:56:09.643Z,3392
2023-01-23T09:56:50.148Z,3352
2023-01-23T09:57:30.703Z,3424
2023-01-23T09:58:11.230Z,3492
2023-01-23T09:58:51.756Z,3540
2023-01-23T09:59:33.077Z,3584
2023-01-23T10:00:13.602Z,3648
2023-01-23T10:02:27.396Z,3768
2023-01-23T10:03:07.152Z,3680
2023-01-23T10:03:47.679Z,3620
2023-01-23T10:04:28.181Z,3780
2023-01-23T10:05:08.716Z,3880
2023-01-23T10:05:49.280Z,4004
2023-01-23T10:06:29.768Z,3956
2023-01-23T10:07:10.270Z,3880
2023-01-23T10:09:23.054Z,4076
2023-01-23T10:10:05.089Z,4000
2023-01-23T10:10:44.103Z,3872
2023-01-23T10:11:24.605Z,3956
2023-01-23T10:12:05.123Z,3944
2023-01-23T10:12:45.686Z,3908
2023-01-23T10:13:26.207Z,3792
2023-01-23T10:14:06.698Z,3992
2023-01-23T10:17:32.955Z,4696
2023-01-23T10:18:13.488Z,4772
2023-01-23T10:18:54.032Z,4840
2023-01-23T10:19:34.570Z,5096
2023-01-23T10:22:03.505Z,6060
2023-01-23T10:22:44.098Z,6036
2023-01-23T10:23:24.619Z,6124
2023-01-23T10:24:05.199Z,6044
2023-01-23T10:26:41.004Z,5752
2023-01-23T10:27:21.582Z,5812
2023-01-23T10:28:02.184Z,5868
2023-01-23T10:28:42.672Z,5816
2023-01-23T10:30:55.928Z,4924
2023-01-23T10:31:37.163Z,5256
2023-01-23T10:32:17.597Z,5332
2023-01-23T10:32:59.218Z,5372
2023-01-23T10:35:12.107Z,4632
2023-01-23T10:35:52.632Z,4740
2023-01-23T10:36:47.429Z,5144
2023-01-23T10:37:14.251Z,5416
2023-01-23T10:37:54.771Z,5496
2023-01-23T10:39:55.184Z,4992
2023-01-23T10:40:35.733Z,4640
2023-01-23T10:41:16.300Z,4648
2023-01-23T10:42:02.247Z,4952
2023-01-23T10:42:38.324Z,5164
2023-01-23T10:45:11.965Z,5492
2023-01-23T10:45:52.535Z,5280
2023-01-23T10:46:33.182Z,4944
2023-01-23T10:47:13.740Z,4452
2023-01-23T10:47:59.928Z,4044
2023-01-23T10:50:38.164Z,3576
2023-01-23T10:51:18.569Z,3588
2023-01-23T10:51:59.728Z,3912
2023-01-23T10:52:41.100Z,4272
2023-01-23T10:53:22.672Z,4404
2023-01-23T10:54:06.662Z,4156
2023-01-23T10:54:51.094Z,4116
2023-01-23T10:56:19.562Z,3780
2023-01-23T10:57:02.942Z,3772
2023-01-23T10:57:46.086Z,4184
2023-01-23T10:58:29.064Z,4732
2023-01-23T10:59:11.654Z,4988
2023-01-23T10:59:57.965Z,4896
2023-01-23T11:01:27.935Z,4380
2023-01-23T11:02:12.179Z,3968
2023-01-23T11:04:59.638Z,4552
2023-01-23T11:06:30.199Z,4980
2023-01-23T11:07:59.227Z,4672
2023-01-23T11:08:41.283Z,4664
2023-01-23T11:10:06.479Z,4948
2023-01-23T11:10:49.001Z,4548
2023-01-23T11:11:32.083Z,3896
2023-01-23T11:13:00.559Z,3100
2023-01-23T11:13:40.975Z,2952
2023-01-23T11:15:45.100Z,2996
2023-01-23T11:16:29.290Z,3016
2023-01-23T11:17:15.066Z,3192
2023-01-23T11:18:01.202Z,3504
2023-01-23T11:19:27.535Z,3344
2023-01-23T11:20:11.560Z,3196
2023-01-23T11:20:55.704Z,3416
2023-01-23T11:21:38.576Z,3844
2023-01-23T11:22:21.655Z,4452
2023-01-23T11:23:07.589Z,5232
2023-01-23T11:25:25.701Z,5716
2023-01-23T11:26:06.238Z,6132
2023-01-23T11:26:46.791Z,6416
2023-01-23T11:27:27.456Z,6500
2023-01-23T11:28:07.938Z,6644
2023-01-23T11:28:48.467Z,6256
2023-01-23T11:29:29.005Z,6184
2023-01-23T11:30:09.675Z,6104
2023-01-23T11:30:51.327Z,6008
2023-01-23T11:31:30.835Z,6100
2023-01-23T11:35:50.644Z,6400
2023-01-23T11:36:31.416Z,6584
2023-01-23T11:37:11.809Z,6816
2023-01-23T11:37:52.413Z,6652
2023-01-23T11:40:10.576Z,6044
2023-01-23T11:40:51.767Z,6092
2023-01-23T11:41:32.277Z,6064
2023-01-23T11:42:12.804Z,6628
2023-01-23T11:42:53.361Z,6868
2023-01-23T11:43:33.925Z,6852
2023-01-23T11:45:47.027Z,7284
2023-01-23T11:46:27.600Z,8036
2023-01-23T11:47:08.055Z,7860
2023-01-23T11:47:48.697Z,7536
2023-01-23T11:48:29.196Z,8108
2023-01-23T11:49:10.011Z,9500
2023-01-23T11:49:51.417Z,11024
2023-01-23T11:50:31.008Z,11712
2023-01-23T11:51:11.579Z,11324
2023-01-23T11:51:52.237Z,10692
2023-01-23T11:57:17.139Z,9872
2023-01-23T11:57:57.690Z,10020
2023-01-23T11:58:48.716Z,10344
2023-01-23T11:59:19.712Z,9804
2023-01-23T12:00:00.264Z,9876
2023-01-23T12:00:40.785Z,9632
2023-01-23T12:01:22.191Z,9164
2023-01-23T12:06:46.897Z,8908
2023-01-23T12:07:27.520Z,9108
2023-01-23T12:08:08.652Z,9012
2023-01-23T12:08:49.264Z,9132
2023-01-23T12:09:29.793Z,9232
2023-01-23T12:10:10.307Z,9824
2023-01-23T12:10:50.917Z,10844
2023-01-23T12:11:31.469Z,11708
2023-01-23T12:12:12.052Z,11584
2023-01-23T12:16:56.694Z,12356
2023-01-23T12:17:38.161Z,13320
2023-01-23T12:18:18.857Z,13044
2023-01-23T12:18:59.322Z,12332
2023-01-23T12:19:39.903Z,11836
2023-01-23T12:22:08.205Z,12504
2023-01-23T12:22:48.823Z,11960
2023-01-23T12:23:29.297Z,10956
2023-01-23T12:24:09.828Z,10980
2023-01-23T12:24:50.344Z,11368
2023-01-23T12:25:30.860Z,11536
2023-01-23T12:26:11.412Z,10712
2023-01-23T12:26:51.947Z,10464
2023-01-23T12:27:33.180Z,9216
2023-01-23T12:32:58.308Z,5156
2023-01-23T12:33:38.832Z,4916
2023-01-23T12:34:19.368Z,5008
2023-01-23T12:35:00.449Z,5152
2023-01-23T12:35:41.009Z,5236
2023-01-23T12:36:21.499Z,5336
2023-01-23T12:37:16.775Z,5500
2023-01-23T12:37:42.499Z,5560
2023-01-23T12:38:23.077Z,5804
2023-01-23T12:44:24.220Z,6824
2023-01-23T12:45:05.399Z,7800
2023-01-23T12:45:45.915Z,8840
2023-01-23T12:46:26.508Z,7820
2023-01-23T12:47:07.648Z,7440
2023-01-23T12:47:48.148Z,6796
2023-01-23T12:48:28.673Z,5696
2023-01-23T12:49:09.161Z,4860
2023-01-23T12:53:55.890Z,4616
2023-01-23T12:54:34.850Z,4476
2023-01-23T12:55:16.331Z,4600
2023-01-23T12:55:56.878Z,4588
2023-01-23T12:56:37.425Z,4780
2023-01-23T12:58:51.634Z,4076
2023-01-23T12:59:33.204Z,3952
2023-01-23T13:00:15.643Z,4328
2023-01-23T13:00:56.223Z,4544
2023-01-23T13:04:13.964Z,3548
2023-01-23T13:04:54.479Z,3684
2023-01-23T13:05:35.002Z,4076
2023-01-23T13:06:16.449Z,4424
2023-01-23T13:06:56.967Z,5084
2023-01-23T13:07:37.488Z,6028
2023-01-23T13:08:19.130Z,6820
2023-01-23T13:14:25.517Z,7328
2023-01-23T13:15:17.346Z,6708
2023-01-23T13:15:46.103Z,6292
2023-01-23T13:16:26.526Z,5996
2023-01-23T13:18:39.593Z,5308
2023-01-23T13:19:20.134Z,5792
2023-01-23T13:20:00.673Z,5248
2023-01-23T13:20:41.213Z,4720
2023-01-23T13:21:22.649Z,4136
2023-01-23T13:22:04.687Z,3912
2023-01-23T13:22:43.691Z,3680
2023-01-23T13:23:25.287Z,3304
2023-01-23T13:28:09.457Z,3848
2023-01-23T13:28:50.002Z,3844
2023-01-23T13:29:30.536Z,3552
2023-01-23T13:30:11.083Z,3220
2023-01-23T13:32:24.215Z,3952
2023-01-23T13:33:04.665Z,4404
2023-01-23T13:33:45.236Z,4948
2023-01-23T13:34:25.784Z,5612
2023-01-23T13:35:06.299Z,5840
2023-01-23T13:35:46.864Z,5692
2023-01-23T13:36:27.432Z,5404
2023-01-23T13:37:07.967Z,5472
2023-01-23T13:37:49.220Z,5664
2023-01-23T13:43:14.524Z,6060
2023-01-23T13:43:55.044Z,5620
2023-01-23T13:44:41.384Z,5400
2023-01-23T13:45:16.138Z,5860
2023-01-23T13:45:56.610Z,6176
2023-01-23T13:48:09.679Z,5236
2023-01-23T13:48:50.198Z,5076
2023-01-23T13:49:30.717Z,5184
2023-01-23T13:50:11.268Z,5368
2023-01-23T13:50:51.783Z,5224
2023-01-23T13:51:33.250Z,5012
2023-01-23T13:52:13.766Z,4824
2023-01-23T13:52:54.278Z,4984
2023-01-23T13:53:34.806Z,5004
2023-01-23T14:00:16.940Z,3696
2023-01-23T14:00:57.436Z,3676
2023-01-23T14:01:37.954Z,3988
2023-01-23T14:02:18.470Z,4372
2023-01-23T14:02:59.011Z,4452
2023-01-23T14:03:39.534Z,4352
2023-01-23T14:04:20.057Z,4068
2023-01-23T14:05:00.618Z,3880
2023-01-23T14:05:41.174Z,3772
2023-01-23T14:06:21.746Z,3572
2023-01-23T14:09:41.747Z,3004
2023-01-23T14:10:22.168Z,2768
2023-01-23T14:11:02.698Z,2736
2023-01-23T14:11:43.225Z,2820
2023-01-23T14:12:23.812Z,2904
2023-01-23T14:13:04.349Z,2928
2023-01-23T14:13:44.893Z,3072
2023-01-23T14:14:25.378Z,2984
2023-01-23T14:19:50.652Z,2868
2023-01-23T14:20:31.188Z,2956
2023-01-23T14:21:13.092Z,3080
2023-01-23T14:23:26.427Z,2816
2023-01-23T14:24:07.732Z,2924
2023-01-23T14:24:48.390Z,3152
2023-01-23T14:25:28.807Z,3104
2023-01-23T14:26:09.370Z,2928
2023-01-23T14:26:49.901Z,3108
2023-01-23T14:27:30.956Z,3120
2023-01-23T14:33:35.301Z,3268
2023-01-23T14:34:17.886Z,3336
2023-01-23T14:34:56.340Z,3448
2023-01-23T14:35:36.863Z,3416
2023-01-23T14:36:17.377Z,3280
2023-01-23T14:36:57.876Z,2880
2023-01-23T14:37:38.399Z,2812
2023-01-23T14:38:18.943Z,3072
2023-01-23T14:38:59.438Z,3060
2023-01-23T14:39:42.428Z,2836
2023-01-23T14:40:26.999Z,2716
2023-01-23T14:46:25.334Z,2968
2023-01-23T14:47:05.826Z,3084
2023-01-23T14:47:48.842Z,2936
2023-01-23T14:48:26.912Z,2980
2023-01-23T14:49:07.436Z,3256
2023-01-23T14:49:47.951Z,3412
2023-01-23T14:50:28.482Z,3168
2023-01-23T14:52:41.627Z,3028
2023-01-23T14:53:22.118Z,2868
2023-01-23T14:54:02.670Z,2936
2023-01-23T14:54:48.497Z,2968
2023-01-23T14:55:29.722Z,3052
2023-01-23T14:56:04.321Z,2808
2023-01-23T14:58:17.905Z,2844
2023-01-23T14:58:58.456Z,2848
2023-01-23T14:59:38.939Z,2668
2023-01-23T15:00:19.456Z,2564
2023-01-23T15:01:00.004Z,2384
2023-01-23T15:01:40.628Z,2304
2023-01-23T15:02:21.108Z,2328
2023-01-23T15:03:01.700Z,2320
2023-01-23T15:03:42.157Z,2472
2023-01-23T15:04:22.704Z,2484
2023-01-23T15:13:33.463Z,1348
2023-01-23T15:14:13.826Z,1296
2023-01-23T15:14:54.356Z,1356
2023-01-23T15:15:34.906Z,1424
2023-01-23T15:16:15.456Z,1436
2023-01-23T15:16:56.020Z,1464
2023-01-23T15:17:36.521Z,1480
2023-01-23T15:18:17.058Z,1464
2023-01-23T15:18:57.572Z,1504
2023-01-23T15:25:02.409Z,1276
2023-01-23T15:27:15.461Z,1200
2023-01-23T15:27:56.035Z,1168
2023-01-23T15:28:36.651Z,1052
2023-01-23T15:29:17.082Z,1060
2023-01-23T15:29:57.635Z,980
2023-01-23T15:30:38.295Z,932
2023-01-23T15:31:18.780Z,900
2023-01-23T15:31:59.264Z,784
2023-01-23T15:32:39.738Z,676
2023-01-23T15:36:34.200Z,548
2023-01-23T15:37:14.699Z,532
2023-01-23T15:37:55.232Z,480
2023-01-23T15:38:35.782Z,460
2023-01-23T15:39:16.295Z,460
2023-01-23T15:39:56.827Z,460
2023-01-23T15:40:37.372Z,464
2023-01-23T15:41:26.852Z,404
2023-01-23T15:41:58.435Z,368
2023-01-23T15:42:38.952Z,372
2023-01-23T15:49:26.027Z,260
2023-01-23T15:50:04.824Z,244
2023-01-23T15:50:45.344Z,228
2023-01-23T15:51:25.860Z,212
2023-01-23T15:52:06.409Z,200
2023-01-23T15:52:47.027Z,192
2023-01-23T15:53:27.530Z,192
2023-01-23T15:54:08.050Z,172
2023-01-23T15:57:24.346Z,164
2023-01-23T15:58:05.704Z,144
2023-01-23T15:58:46.269Z,124
2023-01-23T15:59:26.937Z,116
2023-01-23T16:00:07.387Z,112
2023-01-23T16:00:47.943Z,108
2023-01-23T16:01:28.508Z,96
2023-01-23T16:02:15.220Z,88
2023-01-23T16:06:54.423Z,72
2023-01-23T16:07:35.029Z,72
2023-01-23T16:08:15.432Z,68
2023-01-23T16:09:05.056Z,64
2023-01-23T16:09:36.514Z,60
2023-01-23T16:10:17.064Z,52